sensor_id;sensor_type;location;lat;lon;timestamp;pressure;altitude;pressure_sealevel;temperature;humidity
10840;BME280;5473;42.706;23.328;2023-02-04T00:02:24;-14313.72;;;-142.93;100.00
10840;BME280;5473;42.706;23.328;2023-02-04T00:04:52;-14564.44;;;-142.93;100.00
10840;BME280;5473;42.706;23.328;2023-02-04T00:07:19;-14564.44;;;-142.93;100.00
10840;BME280;5473;42.706;23.328;2023-02-04T00:09:46;-14564.44;;;-142.93;100.00
10840;BME280;5473;42.706;23.328;2023-02-04T00:12:14;-14564.44;;;-142.93;100.00
10840;BME280;5473;42.706;23.328;2023-02-04T00:14:41;-14564.44;;;-142.93;100.00
10840;BME280;5473;42.706;23.328;2023-02-04T00:17:08;-14565.91;;;-142.93;100.00
10840;BME280;5473;42.706;23.328;2023-02-04T00:19:37;-14565.91;;;-142.93;100.00
10840;BME280;5473;42.706;23.328;2023-02-04T00:22:05;-14565.91;;;-142.93;100.00
10840;BME280;5473;42.706;23.328;2023-02-04T00:24:33;-14565.91;;;-142.93;100.00
10840;BME280;5473;42.706;23.328;2023-02-04T00:27:00;-14565.91;;;-142.93;100.00
10840;BME280;5473;42.706;23.328;2023-02-04T00:29:27;-14565.91;;;-142.93;100.00
10840;BME280;5473;42.706;23.328;2023-02-04T00:31:53;-14565.91;;;-142.93;100.00
10840;BME280;5473;42.706;23.328;2023-02-04T00:34:20;-14565.91;;;-142.93;100.00
10840;BME280;5473;42.706;23.328;2023-02-04T00:36:47;-14565.91;;;-142.93;100.00
10840;BME280;5473;42.706;23.328;2023-02-04T00:39:15;-14565.91;;;-142.93;100.00
10840;BME280;5473;42.706;23.328;2023-02-04T00:41:42;-14565.91;;;-142.93;100.00
10840;BME280;5473;42.706;23.328;2023-02-04T00:44:09;-14565.91;;;-142.93;100.00
10840;BME280;5473;42.706;23.328;2023-02-04T00:46:38;-14565.91;;;-142.93;100.00
10840;BME280;5473;42.706;23.328;2023-02-04T00:49:05;-14564.44;;;-142.93;100.00
10840;BME280;5473;42.706;23.328;2023-02-04T00:51:35;-14564.44;;;-142.93;100.00
10840;BME280;5473;42.706;23.328;2023-02-04T00:54:02;-14564.44;;;-142.93;100.00
10840;BME280;5473;42.706;23.328;2023-02-04T00:56:30;-14564.44;;;-142.93;100.00
10840;BME280;5473;42.706;23.328;2023-02-04T00:58:57;-14313.72;;;-142.93;100.00
10840;BME280;5473;42.706;23.328;2023-02-04T01:01:24;-14313.72;;;-142.93;100.00
10840;BME280;5473;42.706;23.328;2023-02-04T01:03:51;-14313.72;;;-142.93;100.00
10840;BME280;5473;42.706;23.328;2023-02-04T01:06:17;-14062.97;;;-142.93;100.00
10840;BME280;5473;42.706;23.328;2023-02-04T01:08:44;-14062.97;;;-142.93;100.00
10840;BME280;5473;42.706;23.328;2023-02-04T01:11:11;-14062.97;;;-142.93;100.00
10840;BME280;5473;42.706;23.328;2023-02-04T01:13:39;-14062.97;;;-142.93;100.00
10840;BME280;5473;42.706;23.328;2023-02-04T01:16:06;-14062.97;;;-142.93;100.00
10840;BME280;5473;42.706;23.328;2023-02-04T01:18:33;-14062.97;;;-142.93;100.00
10840;BME280;5473;42.706;23.328;2023-02-04T01:21:00;-14062.97;;;-142.93;100.00
10840;BME280;5473;42.706;23.328;2023-02-04T01:23:27;-13812.22;;;-142.93;100.00
10840;BME280;5473;42.706;23.328;2023-02-04T01:25:53;-13812.22;;;-142.93;100.00
10840;BME280;5473;42.706;23.328;2023-02-04T01:28:20;-13812.22;;;-142.93;100.00
10840;BME280;5473;42.706;23.328;2023-02-04T01:30:48;-13812.22;;;-142.93;100.00
10840;BME280;5473;42.706;23.328;2023-02-04T01:33:15;-13561.44;;;-142.93;100.00
10840;BME280;5473;42.706;23.328;2023-02-04T01:35:42;-13310.63;;;-142.93;100.00
10840;BME280;5473;42.706;23.328;2023-02-04T01:38:08;-13059.81;;;-142.93;100.00
10840;BME280;5473;42.706;23.328;2023-02-04T01:40:35;-13059.81;;;-142.93;100.00
10840;BME280;5473;42.706;23.328;2023-02-04T01:43:02;-12808.97;;;-142.93;100.00
10840;BME280;5473;42.706;23.328;2023-02-04T01:45:29;-12558.09;;;-142.93;100.00
10840;BME280;5473;42.706;23.328;2023-02-04T01:48:00;-12558.09;;;-142.93;100.00
10840;BME280;5473;42.706;23.328;2023-02-04T01:50:28;-12558.09;;;-142.93;100.00
10840;BME280;5473;42.706;23.328;2023-02-04T01:52:55;-12558.09;;;-142.93;100.00
10840;BME280;5473;42.706;23.328;2023-02-04T01:55:26;-12558.09;;;-142.93;100.00
10840;BME280;5473;42.706;23.328;2023-02-04T01:57:53;-12558.09;;;-142.93;100.00
10840;BME280;5473;42.706;23.328;2023-02-04T02:00:26;-12307.22;;;-142.93;100.00
10840;BME280;5473;42.706;23.328;2023-02-04T02:02:53;-12307.22;;;-142.93;100.00
10840;BME280;5473;42.706;23.328;2023-02-04T02:05:24;-12307.22;;;-142.93;100.00
10840;BME280;5473;42.706;23.328;2023-02-04T02:07:53;-12307.22;;;-142.93;100.00
10840;BME280;5473;42.706;23.328;2023-02-04T02:10:22;-12307.22;;;-142.93;100.00
10840;BME280;5473;42.706;23.328;2023-02-04T02:12:49;-12307.22;;;-142.93;100.00
10840;BME280;5473;42.706;23.328;2023-02-04T02:15:16;-12307.22;;;-142.93;100.00
10840;BME280;5473;42.706;23.328;2023-02-04T02:17:44;-12808.97;;;-142.93;100.00
10840;BME280;5473;42.706;23.328;2023-02-04T02:20:15;-12808.97;;;-142.93;100.00
10840;BME280;5473;42.706;23.328;2023-02-04T02:22:51;-12808.97;;;-142.93;100.00
10840;BME280;5473;42.706;23.328;2023-02-04T02:25:22;-12808.97;;;-142.93;100.00
10840;BME280;5473;42.706;23.328;2023-02-04T02:27:49;-13059.81;;;-142.93;100.00
10840;BME280;5473;42.706;23.328;2023-02-04T02:30:16;-13059.81;;;-142.93;100.00
10840;BME280;5473;42.706;23.328;2023-02-04T02:32:45;-13059.81;;;-142.93;100.00
10840;BME280;5473;42.706;23.328;2023-02-04T02:35:13;-13059.81;;;-142.93;100.00
10840;BME280;5473;42.706;23.328;2023-02-04T02:37:40;-13059.81;;;-142.93;100.00
10840;BME280;5473;42.706;23.328;2023-02-04T02:40:09;-13059.81;;;-142.93;100.00
10840;BME280;5473;42.706;23.328;2023-02-04T02:42:37;-13059.81;;;-142.93;100.00
10840;BME280;5473;42.706;23.328;2023-02-04T02:45:10;-13059.81;;;-142.93;100.00
10840;BME280;5473;42.706;23.328;2023-02-04T02:47:38;-13059.81;;;-142.93;100.00
10840;BME280;5473;42.706;23.328;2023-02-04T02:50:05;-13059.81;;;-142.93;100.00
10840;BME280;5473;42.706;23.328;2023-02-04T02:52:32;-13059.81;;;-142.93;100.00
10840;BME280;5473;42.706;23.328;2023-02-04T02:54:59;-13059.81;;;-142.93;100.00
10840;BME280;5473;42.706;23.328;2023-02-04T02:57:26;-13059.81;;;-142.93;100.00
10840;BME280;5473;42.706;23.328;2023-02-04T02:59:54;-13310.63;;;-142.93;100.00
10840;BME280;5473;42.706;23.328;2023-02-04T03:02:22;-13310.63;;;-142.93;100.00
10840;BME280;5473;42.706;23.328;2023-02-04T03:04:52;-13310.63;;;-142.93;100.00
10840;BME280;5473;42.706;23.328;2023-02-04T03:07:20;-13561.44;;;-142.93;100.00
10840;BME280;5473;42.706;23.328;2023-02-04T03:09:48;-13561.44;;;-142.93;100.00
10840;BME280;5473;42.706;23.328;2023-02-04T03:12:17;-13310.63;;;-142.93;100.00
10840;BME280;5473;42.706;23.328;2023-02-04T03:14:43;-13310.63;;;-142.93;100.00
10840;BME280;5473;42.706;23.328;2023-02-04T03:17:12;-13310.63;;;-142.93;100.00
10840;BME280;5473;42.706;23.328;2023-02-04T03:19:39;-13059.81;;;-142.93;100.00
10840;BME280;5473;42.706;23.328;2023-02-04T03:22:06;-13059.81;;;-142.93;100.00
10840;BME280;5473;42.706;23.328;2023-02-04T03:24:35;-13059.81;;;-142.93;100.00
10840;BME280;5473;42.706;23.328;2023-02-04T03:27:02;-12808.97;;;-142.93;100.00
10840;BME280;5473;42.706;23.328;2023-02-04T03:29:29;-12808.97;;;-142.93;100.00
10840;BME280;5473;42.706;23.328;2023-02-04T03:31:56;-12808.97;;;-142.93;100.00
10840;BME280;5473;42.706;23.328;2023-02-04T03:34:25;-12808.97;;;-142.93;100.00
10840;BME280;5473;42.706;23.328;2023-02-04T03:36:52;-12808.97;;;-142.93;100.00
10840;BME280;5473;42.706;23.328;2023-02-04T03:39:19;-12808.97;;;-142.93;100.00
10840;BME280;5473;42.706;23.328;2023-02-04T03:41:46;-12558.09;;;-142.93;100.00
10840;BME280;5473;42.706;23.328;2023-02-04T03:44:13;-12558.09;;;-142.93;100.00
10840;BME280;5473;42.706;23.328;2023-02-04T03:46:39;-12808.97;;;-142.93;100.00
10840;BME280;5473;42.706;23.328;2023-02-04T03:49:06;-12558.09;;;-142.93;100.00
10840;BME280;5473;42.706;23.328;2023-02-04T03:51:34;-12558.09;;;-142.93;100.00
10840;BME280;5473;42.706;23.328;2023-02-04T03:54:01;-12558.09;;;-142.93;100.00
10840;BME280;5473;42.706;23.328;2023-02-04T03:56:28;-12307.22;;;-142.93;100.00
10840;BME280;5473;42.706;23.328;2023-02-04T03:58:55;-12307.22;;;-142.93;100.00
10840;BME280;5473;42.706;23.328;2023-02-04T04:01:21;-12307.22;;;-142.93;100.00
10840;BME280;5473;42.706;23.328;2023-02-04T04:03:48;-12307.22;;;-142.93;100.00
10840;BME280;5473;42.706;23.328;2023-02-04T04:06:15;-12307.22;;;-142.93;100.00
10840;BME280;5473;42.706;23.328;2023-02-04T04:08:43;-12307.22;;;-142.93;100.00
10840;BME280;5473;42.706;23.328;2023-02-04T04:11:10;-12307.22;;;-142.93;100.00
10840;BME280;5473;42.706;23.328;2023-02-04T04:13:36;-12307.22;;;-142.93;100.00
10840;BME280;5473;42.706;23.328;2023-02-04T04:16:04;-12307.22;;;-142.93;100.00
10840;BME280;5473;42.706;23.328;2023-02-04T04:18:31;-12307.22;;;-142.93;100.00
10840;BME280;5473;42.706;23.328;2023-02-04T04:20:58;-12307.22;;;-142.93;100.00
10840;BME280;5473;42.706;23.328;2023-02-04T04:23:24;-12558.09;;;-142.93;100.00
10840;BME280;5473;42.706;23.328;2023-02-04T04:25:53;-12558.09;;;-142.93;100.00
10840;BME280;5473;42.706;23.328;2023-02-04T04:28:19;-12558.09;;;-142.93;100.00
10840;BME280;5473;42.706;23.328;2023-02-04T04:30:46;-12558.09;;;-142.93;100.00
10840;BME280;5473;42.706;23.328;2023-02-04T04:33:13;-12558.09;;;-142.93;100.00
10840;BME280;5473;42.706;23.328;2023-02-04T04:35:40;-12808.97;;;-142.93;100.00
10840;BME280;5473;42.706;23.328;2023-02-04T04:38:07;-12808.97;;;-142.93;100.00
10840;BME280;5473;42.706;23.328;2023-02-04T04:40:33;-12808.97;;;-142.93;100.00
10840;BME280;5473;42.706;23.328;2023-02-04T04:43:02;-12808.97;;;-142.93;100.00
10840;BME280;5473;42.706;23.328;2023-02-04T04:45:28;-13059.81;;;-142.93;100.00
10840;BME280;5473;42.706;23.328;2023-02-04T04:47:55;-13310.63;;;-142.93;100.00
10840;BME280;5473;42.706;23.328;2023-02-04T04:50:22;-13310.63;;;-142.93;100.00
10840;BME280;5473;42.706;23.328;2023-02-04T04:52:48;-13310.63;;;-142.93;100.00
10840;BME280;5473;42.706;23.328;2023-02-04T04:55:15;-13561.44;;;-142.93;100.00
10840;BME280;5473;42.706;23.328;2023-02-04T04:57:42;-13561.44;;;-142.93;100.00
10840;BME280;5473;42.706;23.328;2023-02-04T05:00:15;-13561.44;;;-142.93;100.00
10840;BME280;5473;42.706;23.328;2023-02-04T05:02:42;-13812.22;;;-142.93;100.00
10840;BME280;5473;42.706;23.328;2023-02-04T05:05:09;-13812.22;;;-142.93;100.00
10840;BME280;5473;42.706;23.328;2023-02-04T05:07:36;-13812.22;;;-142.93;100.00
10840;BME280;5473;42.706;23.328;2023-02-04T05:10:03;-13812.22;;;-142.93;100.00
10840;BME280;5473;42.706;23.328;2023-02-04T05:12:30;-13812.22;;;-142.93;100.00
10840;BME280;5473;42.706;23.328;2023-02-04T05:14:57;-13561.44;;;-142.93;100.00
10840;BME280;5473;42.706;23.328;2023-02-04T05:17:25;-13561.44;;;-142.93;100.00
10840;BME280;5473;42.706;23.328;2023-02-04T05:19:52;-13310.63;;;-142.93;100.00
10840;BME280;5473;42.706;23.328;2023-02-04T05:22:19;-13059.81;;;-142.93;100.00
10840;BME280;5473;42.706;23.328;2023-02-04T05:24:45;-12808.97;;;-142.93;100.00
10840;BME280;5473;42.706;23.328;2023-02-04T05:27:12;-12307.22;;;-142.93;100.00
10840;BME280;5473;42.706;23.328;2023-02-04T05:29:39;-12056.34;;;-142.93;100.00
10840;BME280;5473;42.706;23.328;2023-02-04T05:32:05;-11554.47;;;-142.93;100.00
10840;BME280;5473;42.706;23.328;2023-02-04T05:34:34;-11554.47;;;-142.93;100.00
10840;BME280;5473;42.706;23.328;2023-02-04T05:37:00;-11303.53;;;-142.93;100.00
10840;BME280;5473;42.706;23.328;2023-02-04T05:39:27;-10801.56;;;-142.93;100.00
10840;BME280;5473;42.706;23.328;2023-02-04T05:41:54;-10550.53;;;-142.93;100.00
10840;BME280;5473;42.706;23.328;2023-02-04T05:44:20;-10550.53;;;-142.93;100.00
10840;BME280;5473;42.706;23.328;2023-02-04T05:46:47;-10550.53;;;-142.93;100.00
10840;BME280;5473;42.706;23.328;2023-02-04T05:49:14;-10550.53;;;-142.93;100.00
10840;BME280;5473;42.706;23.328;2023-02-04T05:51:42;-10048.47;;;-142.93;100.00
10840;BME280;5473;42.706;23.328;2023-02-04T05:54:09;-9044.06;;;-142.93;100.00
10840;BME280;5473;42.706;23.328;2023-02-04T05:56:35;-8792.91;;;-142.93;100.00
10840;BME280;5473;42.706;23.328;2023-02-04T05:59:02;-9044.06;;;-142.93;100.00
10840;BME280;5473;42.706;23.328;2023-02-04T06:01:29;-8792.91;;;-142.93;100.00
10840;BME280;5473;42.706;23.328;2023-02-04T06:03:56;-8541.75;;;-142.93;100.00
10840;BME280;5473;42.706;23.328;2023-02-04T06:06:22;-8541.75;;;-142.93;100.00
10840;BME280;5473;42.706;23.328;2023-02-04T06:08:50;-8290.56;;;-142.93;100.00
10840;BME280;5473;42.706;23.328;2023-02-04T06:11:17;-8290.56;;;-142.93;100.00
10840;BME280;5473;42.706;23.328;2023-02-04T06:13:44;-7788.13;;;-142.93;100.00
10840;BME280;5473;42.706;23.328;2023-02-04T06:16:10;-7788.13;;;-142.93;100.00
10840;BME280;5473;42.706;23.328;2023-02-04T06:18:37;-7536.88;;;-142.93;100.00
10840;BME280;5473;42.706;23.328;2023-02-04T06:21:04;-6531.69;;;-142.93;100.00
10840;BME280;5473;42.706;23.328;2023-02-04T06:23:31;-5777.63;;;-142.93;100.00
10840;BME280;5473;42.706;23.328;2023-02-04T06:26:00;-5274.78;;;-142.93;100.00
10840;BME280;5473;42.706;23.328;2023-02-04T06:28:27;-4771.91;;;-142.93;100.00
10840;BME280;5473;42.706;23.328;2023-02-04T06:30:54;-4017.41;;;-142.93;100.00
10840;BME280;5473;42.706;23.328;2023-02-04T06:33:20;-3514.31;;;-142.93;100.00
10840;BME280;5473;42.706;23.328;2023-02-04T06:35:48;-3011.16;;;-142.93;100.00
10840;BME280;5473;42.706;23.328;2023-02-04T06:38:15;-2004.56;;;-142.93;100.00
10840;BME280;5473;42.706;23.328;2023-02-04T06:40:42;-1501.19;;;-142.93;100.00
10840;BME280;5473;42.706;23.328;2023-02-04T06:43:10;-1249.44;;;-142.93;100.00
10840;BME280;5473;42.706;23.328;2023-02-04T06:45:37;-494.16;;;-142.93;100.00
10840;BME280;5473;42.706;23.328;2023-02-04T06:48:04;261.34;;;-142.93;100.00
10840;BME280;5473;42.706;23.328;2023-02-04T06:50:31;1016.97;;;-142.93;100.00
10840;BME280;5473;42.706;23.328;2023-02-04T06:52:57;1268.91;;;-142.93;100.00
10840;BME280;5473;42.706;23.328;2023-02-04T06:55:24;3789.19;;;-142.93;100.00
10840;BME280;5473;42.706;23.328;2023-02-04T06:57:51;6311.41;;;-142.93;100.00
10840;BME280;5473;42.706;23.328;2023-02-04T07:00:20;8078.13;;;-142.93;100.00
10840;BME280;5473;42.706;23.328;2023-02-04T07:02:46;9088.09;;;-142.93;100.00
10840;BME280;5473;42.706;23.328;2023-02-04T07:05:13;12119.88;;;-142.93;100.00
10840;BME280;5473;42.706;23.328;2023-02-04T07:07:40;14395.53;;;-142.93;100.00
10840;BME280;5473;42.706;23.328;2023-02-04T07:10:07;16672.75;;;-142.93;100.00
10840;BME280;5473;42.706;23.328;2023-02-04T07:12:34;25035.97;;;-142.93;100.00
10840;BME280;5473;42.706;23.328;2023-02-04T07:15:00;32208.16;;;-142.93;100.00
10840;BME280;5473;42.706;23.328;2023-02-04T07:17:29;35851.75;;;-142.93;100.00
10840;BME280;5473;42.706;23.328;2023-02-04T07:19:55;37226.34;;;-142.93;100.00
10840;BME280;5473;42.706;23.328;2023-02-04T07:22:22;37795.44;;;-142.93;100.00
10840;BME280;5473;42.706;23.328;2023-02-04T07:24:49;38050.16;;;-142.93;100.00
10840;BME280;5473;42.706;23.328;2023-02-04T07:27:16;38183.50;;;-142.93;100.00
10840;BME280;5473;42.706;23.328;2023-02-04T07:29:42;38281.03;;;-142.93;100.00
10840;BME280;5473;42.706;23.328;2023-02-04T07:32:09;38133.75;;;-142.93;100.00
10840;BME280;5473;42.706;23.328;2023-02-04T07:34:37;38167.56;;;-142.93;100.00
10840;BME280;5473;42.706;23.328;2023-02-04T07:37:04;38127.78;;;-142.93;100.00
10840;BME280;5473;42.706;23.328;2023-02-04T07:39:30;38245.19;;;-142.93;100.00
10840;BME280;5473;42.706;23.328;2023-02-04T07:41:57;38149.66;;;-142.93;100.00
10840;BME280;5473;42.706;23.328;2023-02-04T07:44:24;38219.31;;;-142.93;100.00
10840;BME280;5473;42.706;23.328;2023-02-04T07:46:51;38241.22;;;-142.93;100.00
10840;BME280;5473;42.706;23.328;2023-02-04T07:49:17;38239.22;;;-142.93;100.00
10840;BME280;5473;42.706;23.328;2023-02-04T07:51:46;38229.28;;;-142.93;100.00
10840;BME280;5473;42.706;23.328;2023-02-04T07:54:12;38259.13;;;-142.93;100.00
10840;BME280;5473;42.706;23.328;2023-02-04T07:56:39;38085.97;;;-142.93;100.00
10840;BME280;5473;42.706;23.328;2023-02-04T07:59:06;38095.94;;;-142.93;100.00
10840;BME280;5473;42.706;23.328;2023-02-04T08:01:33;38402.44;;;-142.93;100.00
10840;BME280;5473;42.706;23.328;2023-02-04T08:03:59;38563.66;;;-142.93;100.00
10840;BME280;5473;42.706;23.328;2023-02-04T08:06:26;38611.44;;;-142.93;100.00
10840;BME280;5473;42.706;23.328;2023-02-04T08:08:54;38374.56;;;-142.93;100.00
10840;BME280;5473;42.706;23.328;2023-02-04T08:11:21;38306.91;;;-142.93;100.00
10840;BME280;5473;42.706;23.328;2023-02-04T08:13:48;38316.84;;;-142.93;100.00
10840;BME280;5473;42.706;23.328;2023-02-04T08:16:15;38070.06;;;-142.93;100.00
10840;BME280;5473;42.706;23.328;2023-02-04T08:18:41;37799.41;;;-142.93;100.00
10840;BME280;5473;42.706;23.328;2023-02-04T08:21:08;37477.03;;;-142.93;100.00
10840;BME280;5473;42.706;23.328;2023-02-04T08:23:35;37383.53;;;-142.93;100.00
10840;BME280;5473;42.706;23.328;2023-02-04T08:26:07;36561.84;;;-142.93;100.00
10840;BME280;5473;42.706;23.328;2023-02-04T08:28:34;35102.03;;;-142.93;100.00
10840;BME280;5473;42.706;23.328;2023-02-04T08:31:01;33968.84;;;-142.93;100.00
10840;BME280;5473;42.706;23.328;2023-02-04T08:33:28;33233.47;;;-142.93;100.00
10840;BME280;5473;42.706;23.328;2023-02-04T08:35:54;32092.94;;;-142.93;100.00
10840;BME280;5473;42.706;23.328;2023-02-04T08:38:21;27866.09;;;-142.93;100.00
10840;BME280;5473;42.706;23.328;2023-02-04T08:40:48;27475.25;;;-142.93;100.00
10840;BME280;5473;42.706;23.328;2023-02-04T08:43:16;27066.59;;;-142.93;100.00
10840;BME280;5473;42.706;23.328;2023-02-04T08:45:43;25035.97;;;-142.93;100.00
10840;BME280;5473;42.706;23.328;2023-02-04T08:48:09;21485.38;;;-142.93;100.00
10840;BME280;5473;42.706;23.328;2023-02-04T08:50:36;20725.03;;;-142.93;100.00
10840;BME280;5473;42.706;23.328;2023-02-04T08:53:03;20218.22;;;-142.93;100.00
10840;BME280;5473;42.706;23.328;2023-02-04T08:55:29;18698.25;;;-142.93;100.00
10840;BME280;5473;42.706;23.328;2023-02-04T08:57:56;16166.56;;;-142.93;100.00
10840;BME280;5473;42.706;23.328;2023-02-04T09:00:24;13889.69;;;-142.93;100.00
10840;BME280;5473;42.706;23.328;2023-02-04T09:02:51;11108.97;;;-142.93;100.00
10840;BME280;5473;42.706;23.328;2023-02-04T09:05:18;10603.63;;;-142.93;100.00
10840;BME280;5473;42.706;23.328;2023-02-04T09:07:45;11361.66;;;-142.93;100.00
10840;BME280;5473;42.706;23.328;2023-02-04T09:10:11;10603.63;;;-142.93;100.00
10840;BME280;5473;42.706;23.328;2023-02-04T09:12:38;9593.19;;;-142.93;100.00
10840;BME280;5473;42.706;23.328;2023-02-04T09:15:08;10351.00;;;-142.93;100.00
10840;BME280;5473;42.706;23.328;2023-02-04T09:17:36;12372.66;;;-142.93;100.00
10840;BME280;5473;42.706;23.328;2023-02-04T09:20:04;16419.66;;;-142.93;100.00
10840;BME280;5473;42.706;23.328;2023-02-04T09:22:31;18698.25;;;-142.93;100.00
10840;BME280;5473;42.706;23.328;2023-02-04T09:24:57;21992.38;;;-142.93;100.00
10840;BME280;5473;42.706;23.328;2023-02-04T09:27:24;26051.13;;;-142.93;100.00
10840;BME280;5473;42.706;23.328;2023-02-04T09:29:51;27499.06;;;-142.93;100.00
10840;BME280;5473;42.706;23.328;2023-02-04T09:32:18;30633.09;;;-142.93;100.00
10840;BME280;5473;42.706;23.328;2023-02-04T09:34:46;28086.34;;;-142.93;100.00
10840;BME280;5473;42.706;23.328;2023-02-04T09:37:12;23513.81;;;-142.93;100.00
10840;BME280;5473;42.706;23.328;2023-02-04T09:39:39;12625.44;;;-142.93;100.00
10840;BME280;5473;42.706;23.328;2023-02-04T09:42:08;6816.09;;;-142.93;100.00
10840;BME280;5473;42.706;23.328;2023-02-04T09:44:36;2276.78;;;-142.93;100.00
10840;BME280;5473;42.706;23.328;2023-02-04T09:47:03;9.50;;;-142.93;100.00
10840;BME280;5473;42.706;23.328;2023-02-04T09:49:31;-2004.56;;;-142.93;100.00
10840;BME280;5473;42.706;23.328;2023-02-04T09:51:59;-3262.75;;;-142.93;100.00
10840;BME280;5473;42.706;23.328;2023-02-04T09:54:26;-5023.34;;;-142.93;100.00
10840;BME280;5473;42.706;23.328;2023-02-04T09:56:53;-6029.00;;;-142.93;100.00
10840;BME280;5473;42.706;23.328;2023-02-04T09:59:22;-6531.69;;;-142.93;100.00
10840;BME280;5473;42.706;23.328;2023-02-04T10:01:54;-7034.31;;;-142.93;100.00
10840;BME280;5473;42.706;23.328;2023-02-04T10:04:23;-7285.59;;;-142.93;100.00
10840;BME280;5473;42.706;23.328;2023-02-04T10:06:49;-7788.13;;;-142.93;100.00
10840;BME280;5473;42.706;23.328;2023-02-04T10:09:18;-8039.34;;;-142.93;100.00
10840;BME280;5473;42.706;23.328;2023-02-04T10:11:46;-7788.13;;;-142.93;100.00
10840;BME280;5473;42.706;23.328;2023-02-04T10:14:18;-7788.13;;;-142.93;100.00
10840;BME280;5473;42.706;23.328;2023-02-04T10:16:50;-6783.03;;;-142.93;100.00
10840;BME280;5473;42.706;23.328;2023-02-04T10:19:18;-6029.00;;;-142.93;100.00
10840;BME280;5473;42.706;23.328;2023-02-04T10:21:46;-5777.63;;;-142.93;100.00
10840;BME280;5473;42.706;23.328;2023-02-04T10:24:15;-6029.00;;;-142.93;100.00
10840;BME280;5473;42.706;23.328;2023-02-04T10:26:44;-6280.34;;;-142.93;100.00
10840;BME280;5473;42.706;23.328;2023-02-04T10:29:14;-6531.69;;;-142.93;100.00
10840;BME280;5473;42.706;23.328;2023-02-04T10:31:42;-6280.34;;;-142.93;100.00
10840;BME280;5473;42.706;23.328;2023-02-04T10:34:12;-6029.00;;;-142.93;100.00
10840;BME280;5473;42.706;23.328;2023-02-04T10:36:40;-6029.00;;;-142.93;100.00
10840;BME280;5473;42.706;23.328;2023-02-04T10:39:12;-5777.63;;;-142.93;100.00
10840;BME280;5473;42.706;23.328;2023-02-04T10:41:46;-7285.59;;;-142.93;100.00
10840;BME280;5473;42.706;23.328;2023-02-04T10:44:14;-8541.75;;;-142.93;100.00
10840;BME280;5473;42.706;23.328;2023-02-04T10:46:42;-9295.19;;;-142.93;100.00
10840;BME280;5473;42.706;23.328;2023-02-04T10:49:17;-9044.06;;;-142.93;100.00
10840;BME280;5473;42.706;23.328;2023-02-04T10:51:44;-9295.19;;;-142.93;100.00
10840;BME280;5473;42.706;23.328;2023-02-04T10:54:12;-9295.19;;;-142.93;100.00
10840;BME280;5473;42.706;23.328;2023-02-04T10:57:07;-10550.53;;;-142.93;100.00
10840;BME280;5473;42.706;23.328;2023-02-04T10:59:40;-10048.47;;;-142.93;100.00
10840;BME280;5473;42.706;23.328;2023-02-04T11:05:18;-11052.53;;;-142.93;100.00
10840;BME280;5473;42.706;23.328;2023-02-04T11:07:46;-10550.53;;;-142.93;100.00
10840;BME280;5473;42.706;23.328;2023-02-04T11:10:15;-10299.50;;;-142.93;100.00
10840;BME280;5473;42.706;23.328;2023-02-04T11:12:45;-9546.28;;;-142.93;100.00
10840;BME280;5473;42.706;23.328;2023-02-04T11:15:39;-8792.91;;;-142.93;100.00
10840;BME280;5473;42.706;23.328;2023-02-04T11:18:07;-8792.91;;;-142.93;100.00
10840;BME280;5473;42.706;23.328;2023-02-04T11:20:35;-8039.34;;;-142.93;100.00
10840;BME280;5473;42.706;23.328;2023-02-04T11:23:15;-7788.13;;;-142.93;100.00
10840;BME280;5473;42.706;23.328;2023-02-04T11:25:42;-7285.59;;;-142.93;100.00
10840;BME280;5473;42.706;23.328;2023-02-04T11:28:14;-7536.88;;;-142.93;100.00
10840;BME280;5473;42.706;23.328;2023-02-04T11:30:41;-8039.34;;;-142.93;100.00
10840;BME280;5473;42.706;23.328;2023-02-04T11:33:22;-8290.56;;;-142.93;100.00
10840;BME280;5473;42.706;23.328;2023-02-04T11:36:02;-7285.59;;;-142.93;100.00
10840;BME280;5473;42.706;23.328;2023-02-04T11:38:30;-7788.13;;;-142.93;100.00
10840;BME280;5473;42.706;23.328;2023-02-04T11:40:58;-7285.59;;;-142.93;100.00
10840;BME280;5473;42.706;23.328;2023-02-04T11:43:27;-7788.13;;;-142.93;100.00
10840;BME280;5473;42.706;23.328;2023-02-04T11:46:05;-7788.13;;;-142.93;100.00
10840;BME280;5473;42.706;23.328;2023-02-04T11:48:36;-8541.75;;;-142.93;100.00
10840;BME280;5473;42.706;23.328;2023-02-04T11:51:10;-9295.19;;;-142.93;100.00
10840;BME280;5473;42.706;23.328;2023-02-04T11:53:38;-9044.06;;;-142.93;100.00
10840;BME280;5473;42.706;23.328;2023-02-04T11:56:05;-8290.56;;;-142.93;100.00
10840;BME280;5473;42.706;23.328;2023-02-04T11:58:33;-7788.13;;;-142.93;100.00
10840;BME280;5473;42.706;23.328;2023-02-04T12:01:00;-8792.91;;;-142.93;100.00
10840;BME280;5473;42.706;23.328;2023-02-04T12:03:29;-8792.91;;;-142.93;100.00
10840;BME280;5473;42.706;23.328;2023-02-04T12:05:59;-9295.19;;;-142.93;100.00
10840;BME280;5473;42.706;23.328;2023-02-04T12:08:30;-9546.28;;;-142.93;100.00
10840;BME280;5473;42.706;23.328;2023-02-04T12:11:06;-9797.38;;;-142.93;100.00
10840;BME280;5473;42.706;23.328;2023-02-04T12:13:47;-10299.50;;;-142.93;100.00
10840;BME280;5473;42.706;23.328;2023-02-04T12:16:14;-10550.53;;;-142.93;100.00
10840;BME280;5473;42.706;23.328;2023-02-04T12:18:41;-11303.53;;;-142.93;100.00
10840;BME280;5473;42.706;23.328;2023-02-04T12:21:08;-11554.47;;;-142.93;100.00
10840;BME280;5473;42.706;23.328;2023-02-04T12:23:35;-11805.41;;;-142.93;100.00
10840;BME280;5473;42.706;23.328;2023-02-04T12:26:01;-12558.09;;;-142.93;100.00
10840;BME280;5473;42.706;23.328;2023-02-04T12:28:28;-12558.09;;;-142.93;100.00
10840;BME280;5473;42.706;23.328;2023-02-04T12:30:56;-12558.09;;;-142.93;100.00
10840;BME280;5473;42.706;23.328;2023-02-04T12:33:23;-12558.09;;;-142.93;100.00